Time;durP1;ratioP1;P1;durP2;ratioP2;P2;SDS_P1;SDS_P2;PMS_P1;PMS_P2;Temp;Humidity;BMP_temperature;BMP_pressure;BME280_temperature;BME280_humidity;BME280_pressure;Samples;Min_cycle;Max_cycle;Signal;HPM_P1;HPM_P2
2023/09/21 00:00:12;;;;;;;1.80;1.33;;;23.10;57.90;24.50;99754.00;;;;5027564;28;20665;-76
2023/09/21 00:02:41;;;;;;;2.63;1.77;;;23.10;57.80;24.50;99748.00;;;;5026865;28;20291;-77
2023/09/21 00:05:09;;;;;;;3.35;1.40;;;23.10;57.80;24.50;99755.00;;;;5029627;28;20306;-75
2023/09/21 00:07:37;;;;;;;3.15;1.23;;;23.20;57.80;24.50;99748.00;;;;5029166;28;20208;-76
2023/09/21 00:10:07;;;;;;;2.72;1.05;;;23.10;57.70;24.50;99740.00;;;;5027143;28;20235;-76
2023/09/21 00:12:35;;;;;;;1.40;1.20;;;23.10;57.70;24.50;99744.00;;;;5029480;28;20575;-76
2023/09/21 00:15:06;;;;;;;2.53;1.70;;;23.20;57.70;24.50;99738.00;;;;5028119;28;20193;-76
2023/09/21 00:17:34;;;;;;;1.35;1.08;;;23.20;57.70;24.50;99735.00;;;;5029657;28;20320;-76
2023/09/21 00:20:10;;;;;;;2.60;1.55;;;23.20;57.60;24.60;99733.00;;;;5028494;28;20201;-77
2023/09/21 00:22:37;;;;;;;2.88;1.13;;;23.20;57.60;24.60;99735.00;;;;5031736;28;20225;-77
2023/09/21 00:25:09;;;;;;;1.40;1.17;;;23.20;57.60;24.50;99732.00;;;;5032258;28;20193;-74
2023/09/21 00:27:35;;;;;;;2.28;1.13;;;23.20;57.50;24.50;99729.00;;;;5033356;28;20546;-78
2023/09/21 00:30:04;;;;;;;3.78;1.20;;;23.20;57.50;24.50;99727.00;;;;5032504;28;20262;-75
2023/09/21 00:32:31;;;;;;;2.03;1.20;;;23.20;57.50;24.50;99732.00;;;;5034069;28;20208;-78
2023/09/21 00:34:58;;;;;;;2.25;1.20;;;23.20;57.50;24.60;99727.00;;;;5034017;28;20196;-76
2023/09/21 00:37:27;;;;;;;2.22;1.23;;;23.20;57.50;24.60;99733.00;;;;5030805;28;20258;-78
2023/09/21 00:39:54;;;;;;;1.95;1.60;;;23.20;57.50;24.60;99726.00;;;;5032605;28;20579;-76
2023/09/21 00:42:23;;;;;;;3.50;1.65;;;23.20;57.40;24.50;99724.00;;;;5028719;28;20719;-76
2023/09/21 00:44:51;;;;;;;1.75;1.33;;;23.10;57.40;24.50;99720.00;;;;5034744;28;20205;-76
2023/09/21 00:47:19;;;;;;;1.85;1.33;;;23.10;57.40;24.50;99712.00;;;;5032128;28;20200;-75
2023/09/21 00:49:47;;;;;;;5.35;1.20;;;23.10;57.40;24.50;99709.00;;;;5033483;28;20196;-77
2023/09/21 00:52:16;;;;;;;2.70;1.20;;;23.10;57.40;24.50;99706.00;;;;5031833;28;20558;-76
2023/09/21 00:54:44;;;;;;;1.30;1.10;;;23.10;57.40;24.50;99712.00;;;;5032723;28;20204;-75
2023/09/21 00:57:13;;;;;;;5.10;1.38;;;23.10;57.30;24.50;99705.00;;;;5028678;28;20770;-76
2023/09/21 00:59:45;;;;;;;1.70;1.23;;;23.10;57.40;24.40;99698.00;;;;5025549;28;20208;-77
2023/09/21 01:02:12;;;;;;;1.55;1.20;;;23.10;57.30;24.50;99698.00;;;;5028371;28;20253;-78
2023/09/21 01:04:40;;;;;;;3.05;1.50;;;23.10;57.40;24.40;99693.00;;;;5033679;28;20208;-76
2023/09/21 01:07:17;;;;;;;2.83;1.58;;;23.10;57.30;24.40;99689.00;;;;5035588;28;20231;-74
2023/09/21 01:09:45;;;;;;;4.07;1.10;;;23.10;57.30;24.40;99681.00;;;;5033133;28;20224;-76
2023/09/21 01:12:14;;;;;;;2.25;1.10;;;23.10;57.30;24.40;99690.00;;;;5030987;28;20192;-77
2023/09/21 01:14:44;;;;;;;1.50;1.30;;;23.00;57.30;24.40;99687.00;;;;5032649;28;20746;-77
2023/09/21 01:17:12;;;;;;;2.50;1.20;;;23.00;57.30;24.40;99680.00;;;;5030843;28;20200;-76
2023/09/21 01:19:40;;;;;;;1.77;1.38;;;23.00;57.30;24.40;99675.00;;;;5029383;28;20315;-77
2023/09/21 01:22:12;;;;;;;2.08;1.30;;;23.00;57.30;24.30;99668.00;;;;5030138;28;20207;-77
2023/09/21 01:24:41;;;;;;;1.63;1.25;;;23.00;57.30;24.30;99666.00;;;;5030934;28;20236;-75
2023/09/21 01:27:09;;;;;;;2.28;1.33;;;23.00;57.30;24.30;99667.00;;;;5031011;28;20188;-76
2023/09/21 01:29:36;;;;;;;2.13;1.13;;;23.00;57.30;24.30;99668.00;;;;5030634;28;20236;-77
2023/09/21 01:32:03;;;;;;;2.60;1.15;;;23.00;57.30;24.30;99661.00;;;;5031317;28;20211;-76
2023/09/21 01:34:31;;;;;;;2.65;1.00;;;22.90;57.30;24.30;99654.00;;;;5019165;28;20513;-77
2023/09/21 01:36:58;;;;;;;1.98;1.48;;;22.90;57.30;24.30;99656.00;;;;5031105;28;20205;-76
2023/09/21 01:39:25;;;;;;;1.83;1.35;;;22.90;57.30;24.30;99653.00;;;;5030450;28;20224;-77
2023/09/21 01:41:54;;;;;;;1.40;1.15;;;22.90;57.30;24.20;99655.00;;;;5025756;28;20575;-77
2023/09/21 01:44:22;;;;;;;1.65;1.15;;;22.90;57.30;24.30;99647.00;;;;5029631;28;20614;-77
2023/09/21 01:46:50;;;;;;;2.58;1.75;;;22.90;57.40;24.30;99648.00;;;;5030971;28;20213;-76
2023/09/21 01:49:17;;;;;;;1.85;1.25;;;22.90;57.40;24.20;99640.00;;;;5031702;28;20196;-78
2023/09/21 01:51:45;;;;;;;1.65;1.13;;;22.90;57.40;24.20;99649.00;;;;5028055;28;20201;-76
2023/09/21 01:54:12;;;;;;;3.03;1.02;;;22.90;57.40;24.20;99642.00;;;;5030908;28;20193;-76
2023/09/21 01:56:39;;;;;;;1.60;1.05;;;22.80;57.40;24.20;99641.00;;;;5029378;28;20227;-77
2023/09/21 01:59:08;;;;;;;2.35;1.40;;;22.80;57.40;24.20;99632.00;;;;5018129;28;20697;-77
2023/09/21 02:01:36;;;;;;;2.38;1.10;;;22.80;57.40;24.20;99642.00;;;;5031625;28;20657;-76
2023/09/21 02:04:04;;;;;;;3.35;1.40;;;22.80;57.40;24.20;99632.00;;;;5031275;28;20680;-77
2023/09/21 02:06:31;;;;;;;1.80;1.20;;;22.80;57.40;24.20;99630.00;;;;5029336;28;20210;-78
2023/09/21 02:08:59;;;;;;;2.95;1.13;;;22.80;57.40;24.20;99634.00;;;;5028442;28;20255;-77
2023/09/21 02:11:26;;;;;;;1.77;0.95;;;22.80;57.60;24.20;99635.00;;;;5032557;28;20188;-76
2023/09/21 02:13:54;;;;;;;1.77;1.08;;;22.80;57.40;24.20;99630.00;;;;5031611;28;20295;-77
2023/09/21 02:16:24;;;;;;;1.67;1.27;;;22.80;57.40;24.20;99634.00;;;;5030305;28;20713;-78
2023/09/21 02:18:52;;;;;;;3.42;1.38;;;22.80;57.40;24.20;99633.00;;;;5031582;28;20228;-81
2023/09/21 02:21:19;;;;;;;1.25;1.00;;;22.80;57.50;24.20;99626.00;;;;5030945;28;20204;-78
2023/09/21 02:23:46;;;;;;;3.13;1.23;;;22.80;57.50;24.20;99622.00;;;;5030536;28;20197;-76
2023/09/21 02:26:14;;;;;;;5.57;1.40;;;22.70;57.50;24.20;99621.00;;;;5027668;28;20189;-76
2023/09/21 02:28:42;;;;;;;1.75;0.98;;;22.70;57.50;24.20;99629.00;;;;5032306;28;20208;-77
2023/09/21 02:31:10;;;;;;;2.03;1.02;;;22.70;57.50;24.20;99624.00;;;;5031629;28;20192;-77
2023/09/21 02:33:42;;;;;;;2.58;1.15;;;22.70;57.60;24.10;99624.00;;;;5031207;28;20278;-76
2023/09/21 02:36:14;;;;;;;2.85;1.30;;;22.70;57.60;24.10;99621.00;;;;5029973;28;20608;-76
2023/09/21 02:38:42;;;;;;;1.52;0.93;;;22.70;57.60;24.10;99618.00;;;;5029872;28;20224;-76
2023/09/21 02:41:09;;;;;;;1.33;1.02;;;22.70;57.50;24.10;99618.00;;;;5027460;28;20682;-76
2023/09/21 02:43:36;;;;;;;1.83;1.33;;;22.60;57.50;24.10;99610.00;;;;5024634;28;20200;-76
2023/09/21 02:46:03;;;;;;;1.52;1.00;;;22.70;57.60;24.10;99612.00;;;;5030226;28;20575;-76
2023/09/21 02:48:30;;;;;;;1.60;1.27;;;22.60;57.60;24.10;99616.00;;;;5030829;28;20279;-76
2023/09/21 02:50:59;;;;;;;2.42;1.25;;;22.60;57.50;24.10;99618.00;;;;5031150;28;20197;-76
2023/09/21 02:53:27;;;;;;;1.38;0.90;;;22.60;57.60;24.10;99604.00;;;;5030556;28;20604;-78
2023/09/21 02:55:54;;;;;;;2.80;1.20;;;22.60;57.60;24.10;99609.00;;;;5030898;28;20576;-76
2023/09/21 02:58:21;;;;;;;2.22;1.10;;;22.60;57.60;24.10;99604.00;;;;5029929;28;20579;-77
2023/09/21 03:00:49;;;;;;;2.22;1.30;;;22.60;57.70;24.10;99608.00;;;;5031245;28;20283;-76
2023/09/21 03:03:20;;;;;;;1.92;1.38;;;22.60;57.70;24.10;99614.00;;;;5029317;28;20199;-76
2023/09/21 03:05:51;;;;;;;1.58;1.30;;;22.60;57.70;24.10;99612.00;;;;5029629;28;20585;-76
2023/09/21 03:08:22;;;;;;;3.20;1.10;;;22.60;57.70;24.10;99601.00;;;;5020769;28;20657;-77
2023/09/21 03:10:53;;;;;;;1.83;1.27;;;22.60;57.70;24.10;99604.00;;;;5023852;28;20202;-76
2023/09/21 03:13:21;;;;;;;1.27;1.17;;;22.60;57.80;24.10;99597.00;;;;5030766;28;20228;-77
2023/09/21 03:15:51;;;;;;;2.10;1.35;;;22.60;57.90;24.10;99592.00;;;;5029071;28;20239;-76
2023/09/21 03:18:20;;;;;;;2.00;1.17;;;22.60;57.90;24.10;99585.00;;;;5031883;28;20204;-77
2023/09/21 03:20:48;;;;;;;1.02;0.93;;;22.60;57.90;24.10;99583.00;;;;5029220;28;20565;-76
2023/09/21 03:23:15;;;;;;;1.83;1.20;;;22.60;57.90;24.10;99586.00;;;;5028470;28;20207;-76
2023/09/21 03:25:46;;;;;;;2.53;1.50;;;22.60;57.90;24.00;99579.00;;;;5027469;28;20214;-77
2023/09/21 03:28:16;;;;;;;1.95;1.23;;;22.50;57.80;24.10;99579.00;;;;5020156;28;20223;-76
2023/09/21 03:30:45;;;;;;;2.97;1.23;;;22.60;57.90;24.10;99577.00;;;;5029205;28;20197;-76
2023/09/21 03:33:15;;;;;;;3.25;1.23;;;22.60;57.90;24.00;99574.00;;;;5027025;28;20724;-77
2023/09/21 03:35:43;;;;;;;1.23;0.85;;;22.50;58.40;24.00;99575.00;;;;5028955;28;20193;-76
2023/09/21 03:38:12;;;;;;;2.05;1.20;;;22.50;57.80;24.00;99562.00;;;;5030436;28;20284;-76
2023/09/21 03:40:40;;;;;;;3.05;1.30;;;22.60;57.90;24.00;99568.00;;;;5031081;28;20747;-76
2023/09/21 03:43:10;;;;;;;1.60;1.08;;;22.50;57.80;24.00;99560.00;;;;5030669;28;20673;-76
2023/09/21 03:45:38;;;;;;;2.10;1.02;;;22.50;57.80;24.00;99564.00;;;;5029240;28;20193;-76
2023/09/21 03:48:08;;;;;;;3.33;1.10;;;22.50;57.80;24.00;99557.00;;;;5031032;28;20389;-77
2023/09/21 03:50:36;;;;;;;1.38;1.05;;;22.50;57.90;24.00;99562.00;;;;5030061;28;20570;-76
2023/09/21 03:53:05;;;;;;;1.98;1.13;;;22.50;57.90;24.00;99557.00;;;;5029177;28;20196;-75
2023/09/21 03:55:33;;;;;;;2.67;1.63;;;22.50;57.90;24.00;99560.00;;;;5029688;28;20200;-76
2023/09/21 03:58:00;;;;;;;2.88;1.50;;;22.50;57.90;24.00;99560.00;;;;5034321;28;20206;-76
2023/09/21 04:00:36;;;;;;;1.45;0.98;;;22.50;57.90;24.00;99553.00;;;;5034090;28;20231;-76
2023/09/21 04:03:06;;;;;;;3.17;1.10;;;22.50;57.90;24.00;99546.00;;;;5033263;28;20245;-76
2023/09/21 04:05:35;;;;;;;2.50;1.30;;;22.50;57.80;24.00;99550.00;;;;5030707;28;20227;-76
2023/09/21 04:08:03;;;;;;;1.88;1.23;;;22.50;57.90;24.00;99554.00;;;;5030973;28;20271;-77
2023/09/21 04:10:32;;;;;;;2.95;1.00;;;22.50;57.90;24.00;99546.00;;;;5028650;28;20263;-76
2023/09/21 04:12:59;;;;;;;2.50;1.33;;;22.50;57.90;24.00;99545.00;;;;5034686;28;20283;-76
2023/09/21 04:15:29;;;;;;;1.25;1.15;;;22.50;57.90;23.90;99553.00;;;;5034376;28;20188;-76
2023/09/21 04:17:59;;;;;;;2.65;1.10;;;22.50;57.90;23.90;99557.00;;;;5031495;28;20200;-77
2023/09/21 04:20:30;;;;;;;1.92;1.13;;;22.50;58.00;24.00;99562.00;;;;5034002;28;20212;-76
2023/09/21 04:23:00;;;;;;;2.55;1.10;;;22.50;58.10;23.90;99554.00;;;;5032620;28;20200;-76
2023/09/21 04:25:27;;;;;;;2.42;1.30;;;22.50;58.00;23.90;99564.00;;;;5030977;28;20192;-77
2023/09/21 04:27:54;;;;;;;4.63;1.50;;;22.50;58.00;23.90;99554.00;;;;5031929;28;20206;-76
2023/09/21 04:30:22;;;;;;;1.83;1.20;;;22.50;58.00;23.90;99548.00;;;;5034192;28;20192;-77
2023/09/21 04:32:53;;;;;;;1.40;1.10;;;22.40;58.00;23.90;99548.00;;;;5034524;28;20246;-77
2023/09/21 04:35:21;;;;;;;2.30;1.40;;;22.40;58.00;23.90;99553.00;;;;5033436;28;20557;-78
2023/09/21 04:37:50;;;;;;;2.50;1.60;;;22.40;58.00;23.90;99548.00;;;;5030744;28;20537;-79
2023/09/21 04:40:18;;;;;;;1.75;0.93;;;22.40;58.00;23.90;99550.00;;;;5023380;28;20252;-77
2023/09/21 04:42:47;;;;;;;1.92;1.20;;;22.40;58.00;23.90;99549.00;;;;5031818;28;20200;-76
2023/09/21 04:45:18;;;;;;;3.10;1.15;;;22.40;58.00;23.90;99548.00;;;;5031516;28;20197;-76
2023/09/21 04:47:49;;;;;;;3.15;1.20;;;22.40;58.10;23.80;99547.00;;;;5028118;28;20196;-77
2023/09/21 04:50:19;;;;;;;1.40;0.98;;;22.40;58.10;23.80;99530.00;;;;5024488;28;20561;-77
2023/09/21 04:52:48;;;;;;;1.90;1.48;;;22.40;58.70;23.80;99530.00;;;;5022328;28;20197;-76
2023/09/21 04:55:16;;;;;;;1.67;0.90;;;22.40;58.20;23.80;99533.00;;;;5024296;28;20192;-76
2023/09/21 04:57:43;;;;;;;2.13;1.33;;;22.40;58.20;23.80;99532.00;;;;5026059;28;20294;-76
2023/09/21 05:00:13;;;;;;;2.47;1.08;;;22.40;58.30;23.80;99525.00;;;;5024326;28;20239;-77
2023/09/21 05:02:41;;;;;;;2.13;1.15;;;22.30;58.30;23.80;99532.00;;;;5028495;28;20208;-76
2023/09/21 05:05:09;;;;;;;3.05;1.33;;;22.30;58.30;23.80;99532.00;;;;5029389;28;20208;-76
2023/09/21 05:07:37;;;;;;;1.48;1.08;;;22.30;58.40;23.80;99529.00;;;;5027722;28;20218;-77
2023/09/21 05:10:07;;;;;;;2.88;1.40;;;22.30;58.60;23.80;99531.00;;;;5024053;28;20685;-77
2023/09/21 05:12:35;;;;;;;3.15;1.30;;;22.30;58.60;23.80;99531.00;;;;5030464;28;20185;-76
2023/09/21 05:15:06;;;;;;;2.17;1.25;;;22.30;58.60;23.80;99534.00;;;;5025890;28;20199;-76
2023/09/21 05:17:33;;;;;;;1.02;0.90;;;22.30;58.60;23.80;99541.00;;;;5030981;28;20204;-75
2023/09/21 05:20:00;;;;;;;1.67;1.30;;;22.30;58.60;23.80;99543.00;;;;5022498;28;20328;-75
2023/09/21 05:22:28;;;;;;;1.25;1.00;;;22.30;58.70;23.80;99546.00;;;;5030105;28;20195;-75
2023/09/21 05:24:57;;;;;;;1.85;1.17;;;22.30;58.70;23.80;99548.00;;;;5024948;28;20518;-77
2023/09/21 05:27:29;;;;;;;1.30;1.02;;;22.30;58.80;23.80;99536.00;;;;5026407;28;20271;-82
2023/09/21 05:29:58;;;;;;;1.33;1.10;;;22.30;58.90;23.80;99547.00;;;;5024008;28;20193;-76
2023/09/21 05:32:27;;;;;;;1.98;1.10;;;22.30;58.90;23.80;99541.00;;;;5027753;28;20633;-76
2023/09/21 05:34:56;;;;;;;1.33;1.02;;;22.30;58.90;23.70;99541.00;;;;5029335;28;20220;-76
2023/09/21 05:37:23;;;;;;;1.17;0.90;;;22.30;58.90;23.80;99539.00;;;;5028288;28;20536;-76
2023/09/21 05:39:51;;;;;;;1.25;1.02;;;22.30;58.90;23.80;99542.00;;;;5030977;28;20215;-76
2023/09/21 05:42:19;;;;;;;2.35;1.13;;;22.20;58.90;23.70;99542.00;;;;5024450;28;20205;-78
2023/09/21 05:44:47;;;;;;;1.58;1.13;;;22.30;59.10;23.70;99543.00;;;;5025441;28;20211;-77
2023/09/21 05:47:14;;;;;;;2.15;1.30;;;22.20;59.10;23.70;99538.00;;;;5018415;28;20281;-77
2023/09/21 05:49:43;;;;;;;2.40;1.35;;;22.20;59.10;23.70;99544.00;;;;5022311;28;20189;-77
2023/09/21 05:52:12;;;;;;;2.38;1.10;;;22.20;59.30;23.70;99548.00;;;;5028050;28;20188;-78
2023/09/21 05:54:42;;;;;;;3.00;1.20;;;22.20;59.40;23.70;99545.00;;;;5029817;28;20606;-78
2023/09/21 05:57:10;;;;;;;2.00;1.02;;;22.20;59.50;23.70;99530.00;;;;5029529;28;20589;-77
2023/09/21 05:59:39;;;;;;;2.90;1.23;;;22.20;59.50;23.70;99546.00;;;;5024798;28;20307;-77
2023/09/21 06:02:13;;;;;;;1.80;1.10;;;22.20;59.70;23.70;99543.00;;;;5026504;28;20192;-76
2023/09/21 06:04:41;;;;;;;2.13;1.08;;;22.20;59.90;23.70;99557.00;;;;5027859;28;20291;-76
2023/09/21 06:07:09;;;;;;;2.85;1.15;;;22.20;59.80;23.60;99554.00;;;;5026359;28;20201;-76
2023/09/21 06:09:36;;;;;;;0.93;0.80;;;22.20;59.90;23.60;99545.00;;;;5027782;28;20231;-76
2023/09/21 06:12:05;;;;;;;1.95;1.10;;;22.10;60.00;23.60;99553.00;;;;5016397;28;20688;-77
2023/09/21 06:14:32;;;;;;;2.75;1.38;;;22.10;60.10;23.60;99545.00;;;;5030504;28;20254;-77
2023/09/21 06:17:01;;;;;;;1.33;1.02;;;22.10;60.10;23.50;99549.00;;;;5029805;28;20200;-79
2023/09/21 06:19:28;;;;;;;1.83;0.90;;;22.10;60.30;23.50;99547.00;;;;5026270;28;20693;-80
2023/09/21 06:21:58;;;;;;;3.50;1.40;;;22.00;60.40;23.50;99544.00;;;;5022961;28;20199;-78
2023/09/21 06:24:25;;;;;;;1.20;1.02;;;22.00;60.50;23.50;99548.00;;;;5027382;28;20192;-80
2023/09/21 06:26:53;;;;;;;2.65;1.60;;;22.00;60.70;23.50;99550.00;;;;5027728;28;20188;-81
2023/09/21 06:29:22;;;;;;;3.17;1.30;;;21.90;60.80;23.50;99547.00;;;;5027078;28;20192;-80
2023/09/21 06:31:52;;;;;;;1.60;1.23;;;21.90;61.00;23.50;99544.00;;;;5029007;28;20192;-79
2023/09/21 06:34:23;;;;;;;3.40;1.40;;;21.90;61.00;23.50;99543.00;;;;5023164;28;20675;-79
2023/09/21 06:36:52;;;;;;;1.98;1.55;;;21.90;61.10;23.50;99549.00;;;;5026296;28;20212;-79
2023/09/21 06:39:21;;;;;;;2.58;1.20;;;21.90;61.20;23.50;99548.00;;;;5023684;28;20276;-79
2023/09/21 06:41:48;;;;;;;2.47;1.20;;;21.90;61.40;23.50;99548.00;;;;5028987;28;20562;-79
2023/09/21 06:44:15;;;;;;;1.95;1.20;;;21.90;61.40;23.50;99547.00;;;;5029600;28;20195;-79
2023/09/21 06:46:42;;;;;;;1.83;1.33;;;21.90;61.60;23.40;99554.00;;;;5029047;28;20200;-79
2023/09/21 06:49:10;;;;;;;1.30;1.20;;;21.80;61.60;23.40;99556.00;;;;5029376;28;20188;-80
2023/09/21 06:51:38;;;;;;;2.40;1.55;;;21.80;61.70;23.40;99555.00;;;;5029528;28;20196;-81
2023/09/21 06:54:06;;;;;;;3.40;1.55;;;21.80;61.90;23.40;99562.00;;;;5030442;28;20185;-78
2023/09/21 06:56:33;;;;;;;1.98;1.45;;;21.80;62.00;23.40;99569.00;;;;5029432;28;20778;-79
2023/09/21 06:59:00;;;;;;;3.20;1.45;;;21.80;62.00;23.40;99567.00;;;;5033073;28;20283;-78
2023/09/21 07:01:28;;;;;;;2.53;1.38;;;21.80;62.10;23.40;99572.00;;;;5033677;28;20208;-82
2023/09/21 07:03:55;;;;;;;1.60;1.35;;;21.80;62.20;23.40;99574.00;;;;5031897;28;20214;-85
2023/09/21 07:06:22;;;;;;;2.67;1.58;;;21.80;62.30;23.30;99581.00;;;;5032373;28;20226;-79
2023/09/21 07:08:52;;;;;;;1.98;1.40;;;21.80;62.40;23.30;99583.00;;;;5031041;28;20231;-79
2023/09/21 07:11:20;;;;;;;3.00;1.27;;;21.80;62.60;23.30;99591.00;;;;5031740;28;20275;-78
2023/09/21 07:13:47;;;;;;;2.30;1.40;;;21.80;62.70;23.30;99598.00;;;;5027722;28;20199;-76
2023/09/21 07:16:14;;;;;;;2.40;1.52;;;21.70;62.70;23.30;99604.00;;;;5031188;28;20224;-76
2023/09/21 07:18:42;;;;;;;1.00;0.75;;;21.70;62.80;23.20;99609.00;;;;5030845;28;20275;-76
2023/09/21 07:21:09;;;;;;;2.05;1.00;;;21.70;62.70;23.20;99621.00;;;;5030606;28;20220;-77
2023/09/21 07:23:36;;;;;;;2.03;0.70;;;21.70;62.50;23.10;99609.00;;;;5030874;28;20631;-77
2023/09/21 07:26:05;;;;;;;4.15;0.90;;;21.60;62.40;23.10;99606.00;;;;5028842;28;20192;-75
2023/09/21 07:28:32;;;;;;;0.63;0.47;;;21.60;62.70;23.00;99619.00;;;;5024063;28;20270;-76
2023/09/21 07:31:01;;;;;;;0.60;0.50;;;21.50;62.30;23.00;99631.00;;;;5022681;28;20212;-77
2023/09/21 07:33:30;;;;;;;1.17;0.70;;;21.50;62.50;22.90;99630.00;;;;5029628;28;20545;-77
2023/09/21 07:35:57;;;;;;;1.08;0.43;;;21.40;62.30;22.80;99632.00;;;;5030220;28;20621;-75
2023/09/21 07:38:24;;;;;;;1.27;0.82;;;21.30;62.20;22.80;99630.00;;;;5031135;28;20282;-80
2023/09/21 07:40:51;;;;;;;0.85;0.43;;;21.30;62.20;22.70;99637.00;;;;5028443;28;20574;-75
2023/09/21 07:43:20;;;;;;;2.40;0.57;;;21.20;62.10;22.70;99640.00;;;;5030230;28;20672;-80
2023/09/21 07:45:48;;;;;;;0.93;0.45;;;21.20;62.10;22.60;99649.00;;;;5030953;28;20192;-75
2023/09/21 07:48:16;;;;;;;0.90;0.45;;;21.10;62.10;22.50;99648.00;;;;5029187;28;20265;-76
2023/09/21 07:50:44;;;;;;;0.90;0.38;;;21.00;62.00;22.40;99647.00;;;;5026369;28;20211;-76
2023/09/21 07:53:11;;;;;;;2.38;0.50;;;20.90;62.10;22.40;99642.00;;;;5031656;28;20291;-76
2023/09/21 07:55:38;;;;;;;0.75;0.40;;;20.90;62.20;22.30;99642.00;;;;5027026;28;20188;-77
2023/09/21 07:58:07;;;;;;;1.15;0.52;;;20.80;62.30;22.30;99637.00;;;;5032606;28;20704;-75
2023/09/21 08:00:35;;;;;;;2.65;0.35;;;20.80;63.10;22.30;99637.00;;;;5028162;28;20549;-74
2023/09/21 08:03:03;;;;;;;1.33;0.35;;;20.70;63.30;22.30;99632.00;;;;5026974;28;20642;-76
2023/09/21 08:05:30;;;;;;;0.98;0.20;;;20.70;62.60;22.20;99640.00;;;;5026504;28;20303;-75
2023/09/21 08:07:57;;;;;;;0.75;0.30;;;20.70;62.60;22.20;99636.00;;;;5031660;28;20565;-74
2023/09/21 08:10:24;;;;;;;1.08;0.57;;;20.60;62.50;22.20;99637.00;;;;5025326;28;20231;-75
2023/09/21 08:12:52;;;;;;;0.95;0.28;;;20.60;63.30;22.20;99639.00;;;;5029652;28;20199;-74
2023/09/21 08:15:21;;;;;;;1.30;0.60;;;20.60;62.80;22.20;99640.00;;;;5029615;28;20192;-76
2023/09/21 08:17:49;;;;;;;0.35;0.28;;;20.60;63.00;22.10;99652.00;;;;5030125;28;20224;-74
2023/09/21 08:20:17;;;;;;;0.80;0.30;;;20.50;62.90;22.10;99655.00;;;;5030226;28;20216;-74
2023/09/21 08:22:47;;;;;;;2.25;0.40;;;20.50;62.90;22.20;99656.00;;;;5029840;28;20295;-74
2023/09/21 08:25:14;;;;;;;1.58;0.28;;;20.50;63.10;22.20;99659.00;;;;5033785;28;20215;-76
2023/09/21 08:27:42;;;;;;;0.65;0.40;;;20.50;63.10;22.10;99659.00;;;;5030014;28;20235;-75
2023/09/21 08:30:10;;;;;;;1.00;0.50;;;20.50;63.20;22.10;99656.00;;;;5029071;28;20286;-75
2023/09/21 08:32:39;;;;;;;0.70;0.40;;;20.50;63.30;22.10;99664.00;;;;5029918;28;20204;-76
2023/09/21 08:35:11;;;;;;;1.15;0.32;;;20.40;63.20;22.10;99667.00;;;;5028670;28;20210;-76
2023/09/21 08:37:38;;;;;;;0.70;0.40;;;20.40;63.20;22.10;99678.00;;;;5034086;28;20247;-77
2023/09/21 08:40:06;;;;;;;1.20;0.50;;;20.40;63.10;22.10;99676.00;;;;5027853;28;20223;-76
2023/09/21 08:42:37;;;;;;;1.80;0.40;;;20.40;63.10;22.10;99681.00;;;;5030089;28;20661;-76
2023/09/21 08:45:09;;;;;;;2.08;0.40;;;20.40;63.30;22.10;99693.00;;;;5028468;28;20205;-75
2023/09/21 08:47:39;;;;;;;0.55;0.32;;;20.40;63.40;22.10;99692.00;;;;5021267;28;20525;-75
2023/09/21 08:50:09;;;;;;;1.55;0.45;;;20.40;63.50;22.10;99698.00;;;;5030916;28;20203;-75
2023/09/21 08:52:37;;;;;;;2.97;0.50;;;20.40;63.60;22.10;99695.00;;;;5030962;28;20192;-75
2023/09/21 08:55:06;;;;;;;0.73;0.60;;;20.40;63.70;22.10;99686.00;;;;5028162;28;20200;-78
2023/09/21 08:57:35;;;;;;;2.85;0.45;;;20.40;63.80;22.10;99690.00;;;;5027776;28;20208;-75
2023/09/21 09:00:06;;;;;;;3.95;0.60;;;20.40;63.80;22.10;99680.00;;;;5030627;28;20254;-74
2023/09/21 09:02:35;;;;;;;1.05;0.30;;;20.40;63.80;22.10;99677.00;;;;5031662;28;20200;-75
2023/09/21 09:05:06;;;;;;;1.95;0.60;;;20.40;63.90;22.10;99677.00;;;;5029780;28;20326;-74
2023/09/21 09:07:39;;;;;;;0.52;0.28;;;20.40;63.90;22.10;99682.00;;;;5028427;28;20635;-74
2023/09/21 09:10:09;;;;;;;0.98;0.40;;;20.40;64.10;22.20;99679.00;;;;5026271;28;20239;-76
2023/09/21 09:12:37;;;;;;;2.08;0.52;;;20.40;64.00;22.20;99690.00;;;;5023790;28;20220;-74
2023/09/21 09:15:07;;;;;;;1.48;0.70;;;20.40;64.10;22.20;99691.00;;;;5030690;28;20303;-75
2023/09/21 09:17:34;;;;;;;1.27;0.50;;;20.40;64.10;22.20;99693.00;;;;5036411;28;20204;-75
2023/09/21 09:20:05;;;;;;;1.65;0.60;;;20.50;63.90;22.20;99694.00;;;;5033289;28;20188;-78
2023/09/21 09:22:35;;;;;;;1.85;0.68;;;20.50;64.00;22.20;99697.00;;;;5029237;28;20193;-76
2023/09/21 09:25:05;;;;;;;1.25;0.73;;;20.50;63.90;22.20;99700.00;;;;5029435;28;20200;-77
2023/09/21 09:27:33;;;;;;;3.95;0.93;;;20.50;63.90;22.20;99695.00;;;;5030537;28;20295;-79
2023/09/21 09:30:00;;;;;;;1.10;0.60;;;20.40;63.80;22.20;99706.00;;;;5029997;28;20196;-79
2023/09/21 09:32:35;;;;;;;1.77;0.57;;;20.50;63.90;22.10;99712.00;;;;5025720;28;20214;-78
2023/09/21 09:35:05;;;;;;;1.42;0.45;;;20.50;63.90;22.10;99715.00;;;;5030108;28;20200;-77
2023/09/21 09:37:34;;;;;;;1.25;0.50;;;20.40;63.90;22.10;99689.00;;;;5031333;28;20200;-78
2023/09/21 09:40:06;;;;;;;2.63;0.70;;;20.40;64.00;22.10;99703.00;;;;5037175;28;20292;-76
2023/09/21 09:42:34;;;;;;;1.30;0.63;;;20.40;64.10;22.10;99697.00;;;;5031390;28;20231;-77
2023/09/21 09:45:04;;;;;;;1.10;0.57;;;20.40;64.10;22.10;99691.00;;;;5028995;28;20228;-77
2023/09/21 09:47:37;;;;;;;1.10;0.77;;;20.40;64.20;22.10;99671.00;;;;5025500;28;20192;-77
2023/09/21 09:50:09;;;;;;;0.82;0.60;;;20.40;64.30;22.10;99658.00;;;;5030460;28;20201;-76
2023/09/21 09:52:43;;;;;;;1.40;0.82;;;20.40;64.30;22.10;99641.00;;;;5027761;28;20669;-74
2023/09/21 09:55:13;;;;;;;1.27;0.55;;;20.40;64.30;22.10;99670.00;;;;5027124;28;20192;-75
2023/09/21 09:57:45;;;;;;;1.70;0.70;;;20.40;64.30;22.10;99637.00;;;;5031047;28;20658;-74
2023/09/21 10:00:21;;;;;;;1.00;0.50;;;20.40;64.30;22.00;99657.00;;;;5032757;28;20212;-75
2023/09/21 10:02:49;;;;;;;1.52;0.63;;;20.40;64.50;22.10;99657.00;;;;5030433;28;20200;-76
2023/09/21 10:05:20;;;;;;;3.53;1.00;;;20.40;64.50;22.10;99629.00;;;;5025841;28;20212;-75
2023/09/21 10:07:51;;;;;;;0.70;0.30;;;20.40;64.60;22.10;99643.00;;;;5025379;28;20193;-76
2023/09/21 10:10:22;;;;;;;1.67;0.60;;;20.40;64.70;22.10;99641.00;;;;5027063;28;20224;-75
2023/09/21 10:12:52;;;;;;;1.15;0.50;;;20.40;64.80;22.10;99658.00;;;;5027851;28;20227;-75
2023/09/21 10:15:22;;;;;;;0.73;0.38;;;20.40;64.70;22.10;99662.00;;;;5025150;28;20857;-75
2023/09/21 10:17:50;;;;;;;0.32;0.20;;;20.40;64.60;22.10;99671.00;;;;5025518;28;20204;-74
2023/09/21 10:20:25;;;;;;;1.30;0.40;;;20.40;64.50;22.10;99710.00;;;;5026737;28;20193;-76
2023/09/21 10:22:54;;;;;;;2.45;0.60;;;20.40;64.50;22.10;99722.00;;;;5020492;28;20196;-75
2023/09/21 10:25:38;;;;;;;0.93;0.50;;;20.40;64.60;22.00;99728.00;;;;5028357;28;20200;-76
2023/09/21 10:28:37;;;;;;;3.28;1.02;;;20.40;64.90;21.90;99712.00;;;;5025659;28;20299;-77
2023/09/21 10:31:28;;;;;;;1.13;0.45;;;20.40;65.10;21.90;99725.00;;;;4943473;29;20203;-76
2023/09/21 10:34:12;;;;;;;2.67;0.40;;;20.30;65.60;21.90;99734.00;;;;5021886;28;20192;-76
2023/09/21 10:36:46;;;;;;;1.42;0.40;;;20.40;65.60;22.00;99743.00;;;;5028160;28;20695;-76
2023/09/21 10:39:24;;;;;;;0.90;0.38;;;20.30;64.70;22.00;99729.00;;;;5028778;28;20201;-75
2023/09/21 10:41:55;;;;;;;0.80;0.43;;;20.30;64.70;22.00;99726.00;;;;5022816;28;20230;-76
2023/09/21 10:45:00;;;;;;;0.55;0.32;;;20.30;64.70;21.90;99727.00;;;;5027216;28;20200;-79
2023/09/21 10:47:43;;;;;;;0.52;0.30;;;20.30;65.20;22.00;99714.00;;;;5017430;28;20207;-75
2023/09/21 10:50:13;;;;;;;1.00;0.38;;;20.30;64.70;22.00;99710.00;;;;5026991;28;20554;-77
2023/09/21 10:52:42;;;;;;;0.70;0.40;;;20.30;64.80;22.00;99712.00;;;;5029029;28;20271;-75
2023/09/21 10:55:13;;;;;;;0.60;0.40;;;20.30;64.90;22.00;99688.00;;;;5029510;28;20218;-76
2023/09/21 10:57:43;;;;;;;0.73;0.40;;;20.30;64.70;22.00;99688.00;;;;5027659;28;20196;-78
2023/09/21 11:00:16;;;;;;;0.68;0.25;;;20.30;64.70;22.00;99688.00;;;;5024968;28;20197;-78
2023/09/21 11:02:46;;;;;;;3.58;0.60;;;20.30;64.80;22.00;99687.00;;;;5025893;28;20689;-77